createdAt,value
2019-01-24T00:00:59.609Z,0.00
2019-01-24T00:02:57.989Z,0.00
2019-01-24T00:04:03.510Z,0.00
2019-01-24T00:06:01.902Z,0.00
2019-01-24T00:07:07.417Z,0.00
2019-01-24T00:09:05.796Z,0.00
2019-01-24T00:10:11.317Z,0.00
2019-01-24T00:12:09.734Z,0.00
2019-01-24T00:13:15.225Z,0.00
2019-01-24T00:15:13.605Z,0.00
2019-01-24T00:16:19.131Z,0.00
2019-01-24T00:18:17.542Z,0.00
2019-01-24T00:19:23.027Z,0.00
2019-01-24T00:21:21.399Z,0.00
2019-01-24T00:22:26.921Z,0.00
2019-01-24T00:24:25.327Z,0.00
2019-01-24T00:25:30.821Z,0.00
2019-01-24T00:27:30.052Z,0.00
2019-01-24T00:28:35.570Z,0.00
2019-01-24T00:30:33.972Z,0.00
2019-01-24T00:31:39.475Z,0.00
2019-01-24T00:33:37.850Z,0.00
2019-01-24T00:34:43.372Z,0.00
2019-01-24T00:36:41.768Z,0.00
2019-01-24T00:37:47.272Z,0.00
2019-01-24T00:39:45.651Z,0.00
2019-01-24T00:40:51.179Z,0.00
2019-01-24T00:42:49.567Z,0.00
2019-01-24T00:43:55.073Z,0.00
2019-01-24T00:45:53.452Z,0.00
2019-01-24T00:46:58.978Z,0.00
2019-01-24T00:48:57.379Z,0.00
2019-01-24T00:50:02.893Z,0.00
2019-01-24T00:52:01.265Z,0.00
2019-01-24T00:53:06.785Z,0.00
2019-01-24T00:55:05.194Z,0.00
2019-01-24T00:56:10.685Z,0.00
2019-01-24T00:58:09.065Z,0.00
2019-01-24T00:59:14.590Z,0.00
2019-01-24T01:01:12.997Z,0.00
2019-01-24T01:02:18.490Z,0.00
2019-01-24T01:04:16.873Z,0.00
2019-01-24T01:05:22.398Z,0.00
2019-01-24T01:07:20.785Z,0.00
2019-01-24T01:08:26.292Z,0.00
2019-01-24T01:10:24.670Z,0.00
2019-01-24T01:11:30.191Z,0.00
2019-01-24T01:13:28.589Z,0.00
2019-01-24T01:14:34.091Z,0.00
2019-01-24T01:16:32.477Z,0.00
2019-01-24T01:17:37.993Z,0.00
2019-01-24T01:19:36.386Z,0.00
2019-01-24T01:20:41.898Z,0.00
2019-01-24T01:22:40.280Z,0.00
2019-01-24T01:23:45.804Z,0.00
2019-01-24T01:25:44.200Z,0.00
2019-01-24T01:26:49.705Z,0.00
2019-01-24T01:28:48.092Z,0.00
2019-01-24T01:29:53.605Z,0.00
2019-01-24T01:31:52.008Z,0.00
2019-01-24T01:32:57.513Z,0.00
2019-01-24T01:34:55.892Z,0.00
2019-01-24T01:36:01.420Z,0.00
2019-01-24T01:37:59.816Z,0.00
2019-01-24T01:39:05.318Z,0.00
2019-01-24T01:41:03.698Z,0.00
2019-01-24T01:42:09.216Z,0.00
2019-01-24T01:44:08.480Z,0.00
2019-01-24T01:45:14.499Z,0.00
2019-01-24T01:47:12.350Z,0.00
2019-01-24T01:48:17.910Z,0.00
2019-01-24T01:50:16.279Z,0.00
2019-01-24T01:51:21.773Z,0.00
2019-01-24T01:53:20.160Z,0.00
2019-01-24T01:54:25.674Z,0.00
2019-01-24T01:56:24.091Z,0.00
2019-01-24T01:57:29.786Z,0.00
2019-01-24T01:59:28.450Z,0.00
2019-01-24T02:00:33.969Z,0.00
2019-01-24T02:02:32.379Z,0.00
2019-01-24T02:03:37.878Z,0.00
2019-01-24T02:05:36.274Z,0.00
2019-01-24T02:06:41.792Z,0.00
2019-01-24T02:08:40.191Z,0.00
2019-01-24T02:09:45.691Z,0.00
2019-01-24T02:11:44.068Z,0.00
2019-01-24T02:12:49.591Z,0.00
2019-01-24T02:14:47.995Z,0.00
2019-01-24T02:15:53.491Z,0.00
2019-01-24T02:17:51.872Z,0.00
2019-01-24T02:18:57.392Z,0.00
2019-01-24T02:20:55.795Z,0.00
2019-01-24T02:22:01.295Z,0.00
2019-01-24T02:24:00.522Z,0.00
2019-01-24T02:25:06.046Z,0.00
2019-01-24T02:27:05.046Z,0.00
2019-01-24T02:28:09.943Z,0.00
2019-01-24T02:30:08.324Z,0.00
2019-01-24T02:31:13.851Z,0.00
2019-01-24T02:33:12.260Z,0.00
2019-01-24T02:34:17.748Z,0.00
2019-01-24T02:36:16.135Z,0.00
2019-01-24T02:37:21.658Z,0.00
2019-01-24T02:39:20.055Z,0.00
2019-01-24T02:40:25.557Z,0.00
2019-01-24T02:42:23.931Z,0.00
2019-01-24T02:43:29.453Z,0.00
2019-01-24T02:45:27.861Z,0.00
2019-01-24T02:46:33.359Z,0.00
2019-01-24T02:48:32.369Z,0.00
2019-01-24T02:49:38.090Z,0.00
2019-01-24T02:51:36.308Z,0.00
2019-01-24T02:52:41.798Z,0.00
2019-01-24T02:54:40.181Z,0.00
2019-01-24T02:55:45.701Z,0.00
2019-01-24T02:57:44.092Z,0.00
2019-01-24T02:58:49.603Z,0.00
2019-01-24T03:00:47.988Z,0.00
2019-01-24T03:01:53.502Z,0.00
2019-01-24T03:03:51.897Z,0.00
2019-01-24T03:04:57.402Z,0.00
2019-01-24T03:06:55.790Z,0.00
2019-01-24T03:08:01.305Z,0.00
2019-01-24T03:09:59.697Z,0.00
2019-01-24T03:11:05.207Z,0.00
2019-01-24T03:13:04.466Z,0.00
2019-01-24T03:14:09.955Z,0.00
2019-01-24T03:16:08.340Z,0.00
2019-01-24T03:17:13.854Z,0.00
2019-01-24T03:19:13.100Z,0.00
2019-01-24T03:20:18.607Z,0.00
2019-01-24T03:22:16.990Z,0.00
2019-01-24T03:23:22.507Z,0.00
2019-01-24T03:25:20.915Z,0.00
2019-01-24T03:26:26.417Z,0.00
2019-01-24T03:28:24.796Z,0.00
2019-01-24T03:29:30.316Z,0.00
2019-01-24T03:31:28.735Z,0.00
2019-01-24T03:32:34.220Z,0.00
2019-01-24T03:34:32.596Z,0.00
2019-01-24T03:35:38.121Z,0.00
2019-01-24T03:37:36.530Z,0.00
2019-01-24T03:38:42.020Z,0.00
2019-01-24T03:40:40.398Z,0.00
2019-01-24T03:41:45.926Z,0.00
2019-01-24T03:43:44.328Z,0.00
2019-01-24T03:44:49.825Z,0.00
2019-01-24T03:46:48.211Z,0.00
2019-01-24T03:47:53.735Z,0.00
2019-01-24T03:49:52.142Z,0.00
2019-01-24T03:50:57.633Z,0.00
2019-01-24T03:52:56.023Z,0.00
2019-01-24T03:54:01.543Z,0.00
2019-01-24T03:55:59.931Z,0.00
2019-01-24T03:57:05.437Z,0.00
2019-01-24T03:59:03.826Z,0.00
2019-01-24T04:00:09.351Z,0.00
2019-01-24T04:02:07.758Z,0.00
2019-01-24T04:03:13.252Z,0.00
2019-01-24T04:05:12.212Z,0.00
2019-01-24T04:06:17.150Z,0.00
2019-01-24T04:08:15.552Z,0.00
2019-01-24T04:09:21.049Z,0.00
2019-01-24T04:11:19.433Z,0.00
2019-01-24T04:12:24.967Z,0.00
2019-01-24T04:14:23.353Z,0.00
2019-01-24T04:15:28.854Z,0.00
2019-01-24T04:17:27.237Z,0.00
2019-01-24T04:18:32.754Z,0.00
2019-01-24T04:20:31.154Z,0.00
2019-01-24T04:21:36.660Z,0.00
2019-01-24T04:23:35.037Z,0.00
2019-01-24T04:24:40.560Z,0.00
2019-01-24T04:26:38.956Z,0.00
2019-01-24T04:27:44.467Z,0.00
2019-01-24T04:29:42.854Z,0.00
2019-01-24T04:30:48.367Z,0.00
2019-01-24T04:32:46.756Z,0.00
2019-01-24T04:33:52.272Z,0.00
2019-01-24T04:35:51.516Z,0.00
2019-01-24T04:36:57.020Z,0.00
2019-01-24T04:38:56.007Z,0.00
2019-01-24T04:40:00.929Z,0.00
2019-01-24T04:41:59.308Z,0.00
2019-01-24T04:43:04.832Z,0.00
2019-01-24T04:45:03.243Z,0.00
2019-01-24T04:46:08.741Z,0.00
2019-01-24T04:48:07.115Z,0.00
2019-01-24T04:49:12.641Z,0.00
2019-01-24T04:51:11.060Z,0.00
2019-01-24T04:52:16.539Z,0.00
2019-01-24T04:54:14.924Z,0.00
2019-01-24T04:55:20.452Z,0.00
2019-01-24T04:57:18.844Z,0.00
2019-01-24T04:58:24.353Z,0.00
2019-01-24T05:00:22.756Z,0.00
2019-01-24T05:01:28.263Z,0.00
2019-01-24T05:03:26.650Z,0.00
2019-01-24T05:04:32.166Z,0.00
2019-01-24T05:06:30.553Z,0.00
2019-01-24T05:07:36.071Z,0.00
2019-01-24T05:09:34.444Z,0.00
2019-01-24T05:10:39.969Z,0.00
2019-01-24T05:12:38.364Z,0.00
2019-01-24T05:13:43.872Z,0.00
2019-01-24T05:15:42.251Z,0.00
2019-01-24T05:16:47.771Z,0.00
2019-01-24T05:18:46.188Z,0.00
2019-01-24T05:19:51.677Z,0.00
2019-01-24T05:21:50.054Z,0.00
2019-01-24T05:22:55.579Z,0.00
2019-01-24T05:24:53.980Z,0.00
2019-01-24T05:25:59.480Z,0.00
2019-01-24T05:27:57.860Z,0.00
2019-01-24T05:29:03.943Z,0.00
2019-01-24T05:31:01.787Z,0.00
2019-01-24T05:32:07.286Z,0.00
2019-01-24T05:34:05.666Z,0.00
2019-01-24T05:35:11.182Z,0.00
2019-01-24T05:37:09.578Z,0.00
2019-01-24T05:38:15.086Z,0.00
2019-01-24T05:40:13.466Z,0.00
2019-01-24T05:41:18.992Z,0.00
2019-01-24T05:43:18.235Z,0.00
2019-01-24T05:44:23.742Z,0.00
2019-01-24T05:46:22.120Z,0.00
2019-01-24T05:47:27.642Z,0.00
2019-01-24T05:49:26.033Z,0.00
2019-01-24T05:50:31.544Z,0.00
2019-01-24T05:52:29.922Z,0.00
2019-01-24T05:53:35.447Z,0.00
2019-01-24T05:55:33.850Z,0.00
2019-01-24T05:56:39.358Z,0.00
2019-01-24T05:58:37.737Z,0.00
2019-01-24T05:59:43.260Z,0.00
2019-01-24T06:01:41.660Z,0.00
2019-01-24T06:02:47.161Z,0.00
2019-01-24T06:04:45.571Z,0.00
2019-01-24T06:05:51.062Z,0.00
2019-01-24T06:07:49.455Z,0.00
2019-01-24T06:08:54.966Z,0.00
2019-01-24T06:10:53.371Z,0.00
2019-01-24T06:11:58.878Z,0.00
2019-01-24T06:13:57.255Z,0.00
2019-01-24T06:15:02.772Z,0.00
2019-01-24T06:17:01.194Z,0.00
2019-01-24T06:18:06.698Z,0.00
2019-01-24T06:20:05.927Z,0.00
2019-01-24T06:21:11.448Z,0.00
2019-01-24T06:23:11.143Z,0.00
2019-01-24T06:24:15.351Z,0.00
2019-01-24T06:26:13.736Z,0.00
2019-01-24T06:27:19.255Z,0.00
2019-01-24T06:29:17.646Z,0.00
2019-01-24T06:30:23.154Z,0.00
2019-01-24T06:32:21.537Z,0.00
2019-01-24T06:33:27.056Z,0.00
2019-01-24T06:35:25.469Z,0.00
2019-01-24T06:36:30.972Z,0.00
2019-01-24T06:38:29.347Z,0.00
2019-01-24T06:39:34.870Z,0.00
2019-01-24T06:41:33.256Z,0.00
2019-01-24T06:42:38.769Z,0.00
2019-01-24T06:44:37.152Z,0.00
2019-01-24T06:45:42.679Z,0.00
2019-01-24T06:47:41.063Z,0.00
2019-01-24T06:48:46.574Z,0.00
2019-01-24T06:50:44.954Z,4.00
2019-01-24T06:51:50.482Z,0.00
2019-01-24T06:53:48.873Z,4.00
2019-01-24T06:54:54.381Z,4.00
2019-01-24T06:56:52.765Z,4.00
2019-01-24T06:57:58.279Z,4.00
2019-01-24T06:59:56.686Z,4.00
2019-01-24T07:01:02.185Z,4.00
2019-01-24T07:03:00.567Z,8.00
2019-01-24T07:04:06.087Z,8.00
2019-01-24T07:06:04.481Z,8.00
2019-01-24T07:07:09.991Z,8.00
2019-01-24T07:09:08.374Z,12.00
2019-01-24T07:10:13.896Z,12.00
2019-01-24T07:12:12.306Z,16.00
2019-01-24T07:13:17.802Z,16.00
2019-01-24T07:15:16.181Z,20.00
2019-01-24T07:16:21.699Z,20.00
2019-01-24T07:18:20.099Z,24.00
2019-01-24T07:19:25.605Z,28.00
2019-01-24T07:21:23.987Z,28.00
2019-01-24T07:22:29.505Z,28.00
2019-01-24T07:24:27.893Z,36.00
2019-01-24T07:25:33.402Z,40.00
2019-01-24T07:27:31.787Z,40.00
2019-01-24T07:28:37.312Z,44.00
2019-01-24T07:30:35.698Z,48.00
2019-01-24T07:31:41.209Z,52.00
2019-01-24T07:33:39.605Z,56.00
2019-01-24T07:34:45.116Z,56.00
2019-01-24T07:36:43.497Z,64.00
2019-01-24T07:37:49.023Z,68.00
2019-01-24T07:39:47.411Z,68.00
2019-01-24T07:40:52.925Z,72.00
2019-01-24T07:42:51.303Z,80.00
2019-01-24T07:43:56.829Z,80.00
2019-01-24T07:45:55.799Z,84.00
2019-01-24T07:47:00.732Z,84.00
2019-01-24T07:48:59.127Z,92.00
2019-01-24T07:50:04.865Z,96.00
2019-01-24T07:52:03.011Z,100.00
2019-01-24T07:53:08.529Z,100.00
2019-01-24T07:55:06.925Z,112.00
2019-01-24T07:56:12.435Z,116.00
2019-01-24T07:58:10.812Z,124.00
2019-01-24T07:59:16.331Z,124.00
2019-01-24T08:01:14.728Z,132.00
2019-01-24T08:02:20.237Z,136.00
2019-01-24T08:04:18.631Z,140.00
2019-01-24T08:05:24.136Z,144.00
2019-01-24T08:07:22.518Z,152.00
2019-01-24T08:08:28.039Z,156.00
2019-01-24T08:10:26.444Z,160.00
2019-01-24T08:11:31.939Z,160.00
2019-01-24T08:13:30.330Z,168.00
2019-01-24T08:14:35.848Z,172.00
2019-01-24T08:16:34.242Z,180.00
2019-01-24T08:17:39.752Z,188.00
2019-01-24T08:19:38.159Z,196.00
2019-01-24T08:20:44.060Z,192.00
2019-01-24T08:22:42.045Z,200.00
2019-01-24T08:23:47.567Z,200.00
2019-01-24T08:25:45.972Z,204.00
2019-01-24T08:26:51.474Z,208.00
2019-01-24T08:28:50.700Z,212.00
2019-01-24T08:31:27.787Z,220.00
2019-01-24T08:32:33.310Z,220.00
2019-01-24T08:34:31.689Z,224.00
2019-01-24T08:35:37.198Z,228.00
2019-01-24T08:37:35.594Z,236.00
2019-01-24T08:38:41.104Z,240.00
2019-01-24T08:40:39.484Z,248.00
2019-01-24T08:41:45.007Z,248.00
2019-01-24T08:43:43.393Z,248.00
2019-01-24T08:44:48.904Z,252.00
2019-01-24T08:46:47.306Z,264.00
2019-01-24T08:47:52.810Z,268.00
2019-01-24T08:49:51.204Z,268.00
2019-01-24T08:50:56.717Z,272.00
2019-01-24T08:52:55.119Z,276.00
2019-01-24T08:54:00.626Z,284.00
2019-01-24T08:55:59.003Z,296.00
2019-01-24T08:57:04.522Z,292.00
2019-01-24T08:59:02.924Z,292.00
2019-01-24T09:00:08.430Z,296.00
2019-01-24T09:02:06.827Z,296.00
2019-01-24T09:03:12.331Z,296.00
2019-01-24T09:05:10.714Z,308.00
2019-01-24T09:06:22.393Z,316.00
2019-01-24T09:08:14.641Z,320.00
2019-01-24T09:09:20.133Z,320.00
2019-01-24T09:11:18.517Z,320.00
2019-01-24T09:12:30.095Z,328.00
2019-01-24T09:14:22.429Z,336.00
2019-01-24T09:15:29.246Z,340.00
2019-01-24T09:17:27.174Z,360.00
2019-01-24T09:18:32.700Z,368.00
2019-01-24T09:20:31.105Z,372.00
2019-01-24T09:21:36.614Z,376.00
2019-01-24T09:23:34.993Z,384.00
2019-01-24T09:24:40.522Z,396.00
2019-01-24T09:26:38.915Z,408.00
2019-01-24T09:27:44.427Z,416.00
2019-01-24T09:29:42.813Z,412.00
2019-01-24T09:30:48.331Z,412.00
2019-01-24T09:32:46.739Z,416.00
2019-01-24T09:33:52.229Z,420.00
2019-01-24T09:35:51.461Z,428.00
2019-01-24T09:36:56.985Z,432.00
2019-01-24T09:38:55.373Z,444.00
2019-01-24T09:40:00.887Z,444.00
2019-01-24T09:41:59.266Z,460.00
2019-01-24T09:43:04.788Z,468.00
2019-01-24T09:45:04.044Z,460.00
2019-01-24T09:46:09.541Z,448.00
2019-01-24T09:48:07.919Z,456.00
2019-01-24T09:49:13.448Z,464.00
2019-01-24T09:51:11.841Z,468.00
2019-01-24T09:52:17.348Z,472.00
2019-01-24T09:54:16.346Z,488.00
2019-01-24T09:55:21.255Z,496.00
2019-01-24T09:57:20.513Z,508.00
2019-01-24T09:58:26.004Z,508.00
2019-01-24T10:00:24.390Z,508.00
2019-01-24T10:01:29.906Z,504.00
2019-01-24T10:03:28.302Z,512.00
2019-01-24T10:04:33.811Z,516.00
2019-01-24T10:06:36.194Z,532.00
2019-01-24T10:07:37.714Z,540.00
2019-01-24T10:09:36.975Z,548.00
2019-01-24T10:10:42.472Z,556.00
2019-01-24T10:12:40.852Z,580.00
2019-01-24T10:13:46.377Z,588.00
2019-01-24T10:15:44.772Z,588.00
2019-01-24T10:16:50.282Z,596.00
2019-01-24T10:18:48.663Z,612.00
2019-01-24T10:19:54.186Z,632.00
2019-01-24T10:21:52.590Z,660.00
2019-01-24T10:22:58.091Z,660.00
2019-01-24T10:24:56.465Z,656.00
2019-01-24T10:26:01.989Z,656.00
2019-01-24T10:28:00.400Z,648.00
2019-01-24T10:29:05.893Z,652.00
2019-01-24T10:31:04.276Z,652.00
2019-01-24T10:32:09.797Z,656.00
2019-01-24T10:34:08.188Z,652.00
2019-01-24T10:35:13.708Z,656.00
2019-01-24T10:37:12.088Z,660.00
2019-01-24T10:38:17.612Z,672.00
2019-01-24T10:40:16.054Z,672.00
2019-01-24T10:41:21.544Z,668.00
2019-01-24T10:43:19.928Z,672.00
2019-01-24T10:44:25.448Z,664.00
2019-01-24T10:46:23.843Z,656.00
2019-01-24T10:47:29.355Z,652.00
2019-01-24T10:49:27.735Z,648.00
2019-01-24T10:50:33.261Z,648.00
2019-01-24T10:52:31.667Z,664.00
2019-01-24T10:53:37.160Z,672.00
2019-01-24T10:55:35.546Z,692.00
2019-01-24T10:56:41.065Z,696.00
2019-01-24T10:58:39.456Z,684.00
2019-01-24T10:59:44.976Z,688.00
2019-01-24T11:01:43.350Z,708.00
2019-01-24T11:02:48.880Z,700.00
2019-01-24T11:04:47.274Z,688.00
2019-01-24T11:05:52.789Z,696.00
2019-01-24T11:07:51.167Z,716.00
2019-01-24T11:08:56.696Z,732.00
2019-01-24T11:10:55.079Z,756.00
2019-01-24T11:12:00.595Z,764.00
2019-01-24T11:13:58.991Z,788.00
2019-01-24T11:15:04.496Z,800.00
2019-01-24T11:17:02.880Z,824.00
2019-01-24T11:18:08.401Z,840.00
2019-01-24T11:20:06.809Z,868.00
2019-01-24T11:21:12.308Z,880.00
2019-01-24T11:23:11.532Z,884.00
2019-01-24T11:24:17.060Z,884.00
2019-01-24T11:26:15.458Z,888.00
2019-01-24T11:27:20.963Z,884.00
2019-01-24T11:29:19.345Z,884.00
2019-01-24T11:30:24.871Z,892.00
2019-01-24T11:32:24.114Z,888.00
2019-01-24T11:33:29.622Z,892.00
2019-01-24T11:35:28.010Z,900.00
2019-01-24T11:36:33.535Z,904.00
2019-01-24T11:38:31.936Z,920.00
2019-01-24T11:39:37.454Z,924.00
2019-01-24T11:41:35.864Z,928.00
2019-01-24T11:42:41.361Z,928.00
2019-01-24T11:44:39.751Z,920.00
2019-01-24T11:45:45.263Z,912.00
2019-01-24T11:47:43.684Z,912.00
2019-01-24T11:48:49.170Z,916.00
2019-01-24T11:50:47.556Z,920.00
2019-01-24T11:51:53.082Z,932.00
2019-01-24T11:53:53.147Z,940.00
2019-01-24T11:54:56.990Z,944.00
2019-01-24T11:56:55.370Z,952.00
2019-01-24T11:58:00.895Z,944.00
2019-01-24T11:59:59.290Z,928.00
2019-01-24T12:01:04.809Z,924.00
2019-01-24T12:03:03.180Z,904.00
2019-01-24T12:04:08.704Z,892.00
2019-01-24T12:06:07.102Z,896.00
2019-01-24T12:07:12.612Z,904.00
2019-01-24T12:10:42.563Z,936.00
2019-01-24T12:11:48.074Z,932.00
2019-01-24T12:13:46.456Z,920.00
2019-01-24T12:14:51.980Z,916.00
2019-01-24T12:16:50.375Z,908.00
2019-01-24T12:17:55.888Z,908.00
2019-01-24T12:19:54.273Z,908.00
2019-01-24T12:20:59.799Z,920.00
2019-01-24T12:22:58.194Z,936.00
2019-01-24T12:24:03.708Z,948.00
2019-01-24T12:26:02.123Z,936.00
2019-01-24T12:27:07.618Z,924.00
2019-01-24T12:29:06.006Z,904.00
2019-01-24T12:30:11.527Z,892.00
2019-01-24T12:32:09.936Z,888.00
2019-01-24T12:33:15.445Z,884.00
2019-01-24T12:35:13.836Z,864.00
2019-01-24T12:36:19.533Z,860.00
2019-01-24T12:38:17.757Z,856.00
2019-01-24T12:39:23.264Z,852.00
2019-01-24T12:41:21.652Z,844.00
2019-01-24T12:42:27.185Z,852.00
2019-01-24T12:44:25.596Z,848.00
2019-01-24T12:45:31.154Z,840.00
2019-01-24T12:47:30.338Z,824.00
2019-01-24T12:48:35.859Z,812.00
2019-01-24T12:50:34.298Z,788.00
2019-01-24T12:51:39.802Z,780.00
2019-01-24T12:53:38.198Z,760.00
2019-01-24T12:54:43.712Z,756.00
2019-01-24T12:56:42.098Z,764.00
2019-01-24T12:57:47.620Z,764.00
2019-01-24T12:59:46.019Z,756.00
2019-01-24T13:00:51.525Z,748.00
2019-01-24T13:02:49.908Z,764.00
2019-01-24T13:03:55.429Z,768.00
2019-01-24T13:05:53.832Z,752.00
2019-01-24T13:06:59.349Z,736.00
2019-01-24T13:08:57.749Z,724.00
2019-01-24T13:10:03.249Z,716.00
2019-01-24T13:12:01.638Z,696.00
2019-01-24T13:13:07.174Z,680.00
2019-01-24T13:15:05.560Z,656.00
2019-01-24T13:16:11.069Z,648.00
2019-01-24T13:18:09.458Z,648.00
2019-01-24T13:19:14.982Z,648.00
2019-01-24T13:21:13.374Z,648.00
2019-01-24T13:22:19.441Z,644.00
2019-01-24T13:24:17.278Z,636.00
2019-01-24T13:25:22.788Z,628.00
2019-01-24T13:27:21.173Z,616.00
2019-01-24T13:28:26.695Z,596.00
2019-01-24T13:30:25.101Z,568.00
2019-01-24T13:31:30.602Z,564.00
2019-01-24T13:33:29.846Z,556.00
2019-01-24T13:34:35.357Z,552.00
2019-01-24T13:36:33.744Z,556.00
2019-01-24T13:37:39.264Z,544.00
2019-01-24T13:39:37.677Z,528.00
2019-01-24T13:40:43.178Z,512.00
2019-01-24T13:42:41.562Z,484.00
2019-01-24T13:43:47.085Z,480.00
2019-01-24T13:45:45.485Z,488.00
2019-01-24T13:46:50.995Z,492.00
2019-01-24T13:48:49.398Z,488.00
2019-01-24T13:49:54.900Z,488.00
2019-01-24T13:51:53.284Z,480.00
2019-01-24T13:52:58.811Z,468.00
2019-01-24T13:54:57.202Z,460.00
2019-01-24T13:56:02.710Z,456.00
2019-01-24T13:58:01.094Z,440.00
2019-01-24T13:59:06.618Z,432.00
2019-01-24T14:01:05.012Z,416.00
2019-01-24T14:02:10.522Z,408.00
2019-01-24T14:04:08.913Z,396.00
2019-01-24T14:05:14.421Z,392.00
2019-01-24T14:07:12.808Z,384.00
2019-01-24T14:08:18.321Z,376.00
2019-01-24T14:10:16.731Z,372.00
2019-01-24T14:11:22.229Z,368.00
2019-01-24T14:13:20.612Z,372.00
2019-01-24T14:14:26.143Z,376.00
2019-01-24T14:16:24.544Z,372.00
2019-01-24T14:17:30.048Z,364.00
2019-01-24T14:19:28.433Z,356.00
2019-01-24T14:20:33.953Z,352.00
2019-01-24T14:22:32.347Z,348.00
2019-01-24T14:23:37.858Z,348.00
2019-01-24T14:25:36.246Z,328.00
2019-01-24T14:26:41.776Z,316.00
2019-01-24T14:28:40.162Z,296.00
2019-01-24T14:29:45.672Z,292.00
2019-01-24T14:31:44.078Z,284.00
2019-01-24T14:32:49.586Z,276.00
2019-01-24T14:34:47.970Z,260.00
2019-01-24T14:35:53.490Z,252.00
2019-01-24T14:37:51.887Z,232.00
2019-01-24T14:38:57.405Z,224.00
2019-01-24T14:40:55.798Z,212.00
2019-01-24T14:42:01.307Z,200.00
2019-01-24T14:43:59.699Z,192.00
2019-01-24T14:45:05.216Z,188.00
2019-01-24T14:47:03.620Z,180.00
2019-01-24T14:48:09.130Z,176.00
2019-01-24T14:50:07.521Z,164.00
2019-01-24T14:51:13.039Z,156.00
2019-01-24T14:53:11.438Z,152.00
2019-01-24T14:54:16.949Z,144.00
2019-01-24T14:56:15.360Z,136.00
2019-01-24T14:57:20.869Z,132.00
2019-01-24T14:59:19.246Z,120.00
2019-01-24T15:00:24.770Z,120.00
2019-01-24T15:02:23.171Z,112.00
2019-01-24T15:03:28.684Z,108.00
2019-01-24T15:05:27.075Z,100.00
2019-01-24T15:06:32.591Z,100.00
2019-01-24T15:08:31.002Z,92.00
2019-01-24T15:09:36.500Z,88.00
2019-01-24T15:11:34.890Z,80.00
2019-01-24T15:12:40.415Z,76.00
2019-01-24T15:14:38.811Z,72.00
2019-01-24T15:15:44.328Z,68.00
2019-01-24T15:17:42.705Z,60.00
2019-01-24T15:18:48.228Z,60.00
2019-01-24T15:20:46.642Z,52.00
2019-01-24T15:21:52.138Z,52.00
2019-01-24T15:23:51.368Z,48.00
2019-01-24T15:24:56.891Z,48.00
2019-01-24T15:26:55.304Z,44.00
2019-01-24T15:28:00.806Z,40.00
2019-01-24T15:29:59.208Z,36.00
2019-01-24T15:31:04.733Z,36.00
2019-01-24T15:33:03.128Z,28.00
2019-01-24T15:34:08.636Z,28.00
2019-01-24T15:36:07.052Z,24.00
2019-01-24T15:37:12.548Z,24.00
2019-01-24T15:39:11.022Z,20.00
2019-01-24T15:40:16.470Z,20.00
2019-01-24T15:42:14.877Z,16.00
2019-01-24T15:43:20.379Z,12.00
2019-01-24T15:45:18.761Z,12.00
2019-01-24T15:46:24.277Z,12.00
2019-01-24T15:48:22.682Z,12.00
2019-01-24T15:49:28.185Z,8.00
2019-01-24T15:51:26.569Z,8.00
2019-01-24T15:52:34.092Z,8.00
2019-01-24T15:54:30.498Z,4.00
2019-01-24T15:55:36.004Z,4.00
2019-01-24T15:57:34.394Z,4.00
2019-01-24T15:58:39.924Z,4.00
2019-01-24T16:00:38.320Z,0.00
2019-01-24T16:01:43.829Z,4.00
2019-01-24T16:03:42.224Z,0.00
2019-01-24T16:04:47.734Z,0.00
2019-01-24T16:06:46.120Z,4.00
2019-01-24T16:07:51.651Z,0.00
2019-01-24T16:09:50.036Z,0.00
2019-01-24T16:10:55.550Z,0.00
2019-01-24T16:12:53.938Z,0.00
2019-01-24T16:13:59.458Z,0.00
2019-01-24T16:15:58.652Z,0.00
2019-01-24T16:17:03.359Z,0.00
2019-01-24T16:19:02.605Z,0.00
2019-01-24T16:20:08.115Z,0.00
2019-01-24T16:22:06.501Z,0.00
2019-01-24T16:23:12.029Z,0.00
2019-01-24T16:25:10.426Z,0.00
2019-01-24T16:26:15.929Z,0.00
2019-01-24T16:28:14.311Z,0.00
2019-01-24T16:29:19.834Z,0.00
2019-01-24T16:31:18.232Z,0.00
2019-01-24T16:32:23.741Z,0.00
2019-01-24T16:34:22.977Z,0.00
2019-01-24T16:35:28.493Z,0.00
2019-01-24T16:37:26.885Z,0.00
2019-01-24T16:38:32.406Z,0.00
2019-01-24T16:40:30.810Z,0.00
2019-01-24T16:41:36.311Z,0.00
2019-01-24T16:43:34.689Z,0.00
2019-01-24T16:44:40.213Z,0.00
2019-01-24T16:46:39.106Z,0.00
2019-01-24T16:47:44.617Z,0.00
2019-01-24T16:49:43.000Z,0.00
2019-01-24T16:50:48.522Z,0.00
2019-01-24T16:52:46.921Z,0.00
2019-01-24T16:53:52.436Z,0.00
2019-01-24T16:55:50.808Z,0.00
2019-01-24T16:56:56.336Z,0.00
2019-01-24T16:58:54.722Z,0.00
2019-01-24T17:00:00.235Z,0.00
2019-01-24T17:01:58.641Z,0.00
2019-01-24T17:03:04.141Z,0.00
2019-01-24T17:05:02.526Z,0.00
2019-01-24T17:06:08.046Z,0.00
2019-01-24T17:08:06.456Z,0.00
2019-01-24T17:09:11.964Z,0.00
2019-01-24T17:11:10.377Z,0.00
2019-01-24T17:12:15.893Z,0.00
2019-01-24T17:14:14.370Z,0.00
2019-01-24T17:15:19.814Z,0.00
2019-01-24T17:17:18.212Z,0.00
2019-01-24T17:18:23.719Z,0.00
2019-01-24T17:20:22.105Z,0.00
2019-01-24T17:21:27.625Z,0.00
2019-01-24T17:23:26.027Z,0.00
2019-01-24T17:24:31.546Z,0.00
2019-01-24T17:26:29.927Z,0.00
2019-01-24T17:27:35.438Z,0.00
2019-01-24T17:29:33.826Z,0.00
2019-01-24T17:30:39.347Z,0.00
2019-01-24T17:32:37.740Z,0.00
2019-01-24T17:33:43.255Z,0.00
2019-01-24T17:35:41.625Z,0.00
2019-01-24T17:36:47.152Z,0.00
2019-01-24T17:38:45.552Z,0.00
2019-01-24T17:39:51.076Z,0.00
2019-01-24T17:41:49.468Z,0.00
2019-01-24T17:42:54.963Z,0.00
2019-01-24T17:44:53.344Z,0.00
2019-01-24T17:45:58.870Z,0.00
2019-01-24T17:47:57.312Z,0.00
2019-01-24T17:49:02.814Z,0.00
2019-01-24T17:51:01.239Z,0.00
2019-01-24T17:52:06.683Z,0.00
2019-01-24T17:54:05.062Z,0.00
2019-01-24T17:55:10.586Z,0.00
2019-01-24T17:57:09.058Z,0.00
2019-01-24T17:58:14.492Z,0.00
2019-01-24T18:00:13.744Z,0.00
2019-01-24T18:01:19.265Z,0.00
2019-01-24T18:03:17.674Z,0.00
2019-01-24T18:04:23.182Z,0.00
2019-01-24T18:06:21.618Z,0.00
2019-01-24T18:07:27.103Z,0.00
2019-01-24T18:09:25.474Z,0.00
2019-01-24T18:10:30.996Z,0.00
2019-01-24T18:12:29.392Z,0.00
2019-01-24T18:13:34.963Z,0.00
2019-01-24T18:15:33.328Z,0.00
2019-01-24T18:16:38.855Z,0.00
2019-01-24T18:18:38.000Z,0.00
2019-01-24T18:19:42.743Z,0.00
2019-01-24T18:21:41.155Z,0.00
2019-01-24T18:22:46.653Z,0.00
2019-01-24T18:24:45.035Z,0.00
2019-01-24T18:25:50.556Z,0.00
2019-01-24T18:27:49.019Z,0.00
2019-01-24T18:28:54.463Z,0.00
2019-01-24T18:30:52.846Z,0.00
2019-01-24T18:31:58.368Z,0.00
2019-01-24T18:33:56.785Z,0.00
2019-01-24T18:35:02.311Z,0.00
2019-01-24T18:37:00.692Z,0.00
2019-01-24T18:38:06.203Z,0.00
2019-01-24T18:40:04.601Z,0.00
2019-01-24T18:41:10.119Z,0.00
2019-01-24T18:43:08.494Z,0.00
2019-01-24T18:44:14.012Z,0.00
2019-01-24T18:46:12.420Z,0.00
2019-01-24T18:47:17.919Z,0.00
2019-01-24T18:49:16.312Z,0.00
2019-01-24T18:50:21.823Z,0.00
2019-01-24T18:52:20.213Z,0.00
2019-01-24T18:53:25.738Z,0.00
2019-01-24T18:55:24.140Z,0.00
2019-01-24T18:56:29.642Z,0.00
2019-01-24T18:58:28.026Z,0.00
2019-01-24T18:59:33.546Z,0.00
2019-01-24T19:01:31.943Z,0.00
2019-01-24T19:02:37.458Z,0.00
2019-01-24T19:04:35.837Z,0.00
2019-01-24T19:05:41.356Z,0.00
2019-01-24T19:07:39.772Z,0.00
2019-01-24T19:08:46.051Z,0.00
2019-01-24T19:10:43.641Z,0.00
2019-01-24T19:11:49.167Z,0.00
2019-01-24T19:13:47.561Z,0.00
2019-01-24T19:14:53.072Z,0.00
2019-01-24T19:16:51.464Z,0.00
2019-01-24T19:17:56.981Z,0.00
2019-01-24T19:19:55.396Z,0.00
2019-01-24T19:21:00.893Z,0.00
2019-01-24T19:22:59.274Z,0.00
2019-01-24T19:24:04.794Z,0.00
2019-01-24T19:26:03.207Z,0.00
2019-01-24T19:27:08.702Z,0.00
2019-01-24T19:29:07.083Z,0.00
2019-01-24T19:30:12.607Z,0.00
2019-01-24T19:32:11.004Z,0.00
2019-01-24T19:33:16.518Z,0.00
2019-01-24T19:35:14.897Z,0.00
2019-01-24T19:36:20.840Z,0.00
2019-01-24T19:38:19.309Z,0.00
2019-01-24T19:39:24.332Z,0.00
2019-01-24T19:41:22.737Z,0.00
2019-01-24T19:42:28.239Z,0.00
2019-01-24T19:44:26.628Z,0.00
2019-01-24T19:45:32.156Z,0.00
2019-01-24T19:47:30.571Z,0.00
2019-01-24T19:48:36.062Z,0.00
2019-01-24T19:50:34.454Z,0.00
2019-01-24T19:51:39.985Z,0.00
2019-01-24T19:53:38.415Z,0.00
2019-01-24T19:54:43.879Z,0.00